createdAt,value
2023-05-13T00:01:28.256Z,1.6
2023-05-13T00:05:22.724Z,1.6
2023-05-13T00:09:22.496Z,1.6
2023-05-13T00:13:22.851Z,1.6
2023-05-13T00:17:22.285Z,1.6
2023-05-13T00:21:22.175Z,1.61
2023-05-13T00:25:22.500Z,1.62
2023-05-13T00:29:22.515Z,1.62
2023-05-13T00:33:22.763Z,1.61
2023-05-13T00:37:22.421Z,1.62
2023-05-13T00:41:22.513Z,1.62
2023-05-13T00:45:23.573Z,1.63
2023-05-13T00:49:22.836Z,1.63
2023-05-13T00:53:22.634Z,1.63
2023-05-13T00:57:21.892Z,1.63
2023-05-13T01:01:25.549Z,1.63
2023-05-13T01:05:22.515Z,1.63
2023-05-13T01:09:22.657Z,1.63
2023-05-13T01:13:22.128Z,1.64
2023-05-13T01:17:22.702Z,1.64
2023-05-13T01:21:22.816Z,1.64
2023-05-13T01:25:22.286Z,1.65
2023-05-13T01:29:22.112Z,1.65
2023-05-13T01:33:22.913Z,1.65
2023-05-13T01:37:22.709Z,1.65
2023-05-13T01:41:41.819Z,1.65
2023-05-13T01:45:21.855Z,1.65
2023-05-13T01:49:22.361Z,1.65
2023-05-13T01:53:22.317Z,1.65
2023-05-13T01:57:22.561Z,1.65
2023-05-13T02:01:27.151Z,1.66
2023-05-13T02:05:22.163Z,1.66
2023-05-13T02:09:22.576Z,1.66
2023-05-13T02:13:22.769Z,1.65
2023-05-13T02:17:22.560Z,1.65
2023-05-13T02:21:22.424Z,1.65
2023-05-13T02:25:22.613Z,1.65
2023-05-13T02:29:21.847Z,1.65
2023-05-13T02:33:22.385Z,1.65
2023-05-13T02:37:22.473Z,1.65
2023-05-13T02:41:22.730Z,1.65
2023-05-13T02:45:22.556Z,1.65
2023-05-13T02:49:22.265Z,1.65
2023-05-13T02:53:22.111Z,1.65
2023-05-13T02:57:22.567Z,1.65
2023-05-13T03:01:25.830Z,1.65
2023-05-13T03:05:21.980Z,1.65
2023-05-13T03:09:22.242Z,1.65
2023-05-13T03:13:22.701Z,1.65
2023-05-13T03:17:23.284Z,1.65
2023-05-13T03:21:23.139Z,1.65
2023-05-13T03:25:22.048Z,0.72
2023-05-13T03:29:22.147Z,0.65
2023-05-13T03:33:22.633Z,0.85
2023-05-13T03:37:21.981Z,0.98
2023-05-13T03:41:22.326Z,0.99
2023-05-13T03:45:22.369Z,1.08
2023-05-13T03:49:22.784Z,1.13
2023-05-13T03:53:22.745Z,1.13
2023-05-13T03:57:21.811Z,1.18
2023-05-13T04:01:25.098Z,1.21
2023-05-13T04:05:22.688Z,1.21
2023-05-13T04:09:22.388Z,1.24
2023-05-13T04:13:22.532Z,1.26
2023-05-13T04:17:23.000Z,1.27
2023-05-13T04:21:22.770Z,1.28
2023-05-13T04:25:22.071Z,1.28
2023-05-13T04:29:22.297Z,1.28
2023-05-13T04:33:22.787Z,1.28
2023-05-13T04:37:24.224Z,1.28
2023-05-13T04:41:22.262Z,1.28
2023-05-13T04:45:22.154Z,1.28
2023-05-13T04:49:24.214Z,1.28
2023-05-13T04:53:22.806Z,1.28
2023-05-13T04:57:21.970Z,1.28
2023-05-13T05:01:25.804Z,1.28
2023-05-13T05:05:22.081Z,1.28
2023-05-13T05:09:22.160Z,1.28
2023-05-13T05:13:22.415Z,1.28
2023-05-13T05:17:23.402Z,1.28
2023-05-13T05:21:25.480Z,1.28
2023-05-13T05:25:22.025Z,0.58
2023-05-13T05:29:22.091Z,0.57
2023-05-13T05:33:23.027Z,0.57
2023-05-13T05:37:24.648Z,0.57
2023-05-13T05:41:21.869Z,0.57
2023-05-13T05:45:22.140Z,0.57
2023-05-13T05:49:22.392Z,0.57
2023-05-13T05:53:22.296Z,0.57
2023-05-13T05:57:22.506Z,0.57
2023-05-13T06:01:25.135Z,0.57
2023-05-13T06:05:23.321Z,0.57
2023-05-13T06:09:22.923Z,0.57
2023-05-13T06:13:22.010Z,0.57
2023-05-13T06:17:22.647Z,0.57
2023-05-13T06:21:22.450Z,0.57
2023-05-13T06:25:22.450Z,0.57
2023-05-13T06:29:23.719Z,0.57
2023-05-13T06:33:36.485Z,0.49
2023-05-13T06:37:22.462Z,0.49
2023-05-13T06:41:22.399Z,0.49
2023-05-13T06:45:21.937Z,0.49
2023-05-13T06:49:22.817Z,0.49
2023-05-13T06:53:22.542Z,0.49
2023-05-13T06:57:32.310Z,0.49
2023-05-13T07:01:27.706Z,0.49
2023-05-13T07:05:23.075Z,0.49
2023-05-13T07:09:22.443Z,0.49
2023-05-13T07:13:22.672Z,0.49
2023-05-13T07:17:22.431Z,0.49
2023-05-13T07:21:22.511Z,0.49
2023-05-13T07:25:22.559Z,0.49
2023-05-13T07:29:22.740Z,0.49
2023-05-13T07:33:22.690Z,0.49
2023-05-13T07:37:22.662Z,0.49
2023-05-13T07:41:22.332Z,0.46
2023-05-13T07:45:22.479Z,0.74
2023-05-13T07:49:22.696Z,0.74
2023-05-13T07:53:22.363Z,0.89
2023-05-13T07:57:22.570Z,0.97
2023-05-13T08:01:26.689Z,0.97
2023-05-13T08:05:23.576Z,1.03
2023-05-13T08:09:22.257Z,1.07
2023-05-13T08:13:22.707Z,1.07
2023-05-13T08:17:22.982Z,1.11
2023-05-13T08:21:24.364Z,1.13
2023-05-13T08:25:22.900Z,1.13
2023-05-13T08:29:23.749Z,1.15
2023-05-13T08:33:22.269Z,1.17
2023-05-13T08:37:22.036Z,1.17
2023-05-13T08:41:22.423Z,1.18
2023-05-13T08:45:22.523Z,1.19
2023-05-13T08:49:22.718Z,1.19
2023-05-13T08:53:22.544Z,1.2
2023-05-13T08:57:22.943Z,1.21
2023-05-13T09:01:25.413Z,1.21
2023-05-13T09:05:23.281Z,1.24
2023-05-13T09:09:22.542Z,1.24
2023-05-13T09:13:21.848Z,1.24
2023-05-13T09:17:22.147Z,1.25
2023-05-13T09:21:22.230Z,1.26
2023-05-13T09:25:22.500Z,1.26
2023-05-13T09:29:23.074Z,1.26
2023-05-13T09:33:22.801Z,1.27
2023-05-13T09:37:25.184Z,1.27
2023-05-13T09:41:23.226Z,1.27
2023-05-13T09:45:22.030Z,1.28
2023-05-13T09:49:22.181Z,1.28
2023-05-13T09:53:22.015Z,1.29
2023-05-13T09:57:22.405Z,1.3
2023-05-13T10:01:43.415Z,1.3
2023-05-13T10:05:22.576Z,1.31
2023-05-13T10:13:22.785Z,1.31
2023-05-13T10:16:27.271Z,1.31
2023-05-13T10:19:22.960Z,1.31
2023-05-13T10:22:23.497Z,1.31
2023-05-13T10:25:24.578Z,1.32
2023-05-13T10:27:22.519Z,1.32
2023-05-13T10:29:22.299Z,1.32
2023-05-13T10:31:24.452Z,1.32
2023-05-13T10:33:23.211Z,1.32
2023-05-13T10:35:21.903Z,1.32
2023-05-13T10:37:22.299Z,1.32
2023-05-13T10:39:22.121Z,1.32
2023-05-13T10:41:22.872Z,1.32
2023-05-13T10:43:22.123Z,1.32
2023-05-13T10:45:22.762Z,1.32
2023-05-13T10:47:22.773Z,1.32
2023-05-13T10:49:22.759Z,1.32
2023-05-13T10:51:23.016Z,1.32
2023-05-13T10:53:22.589Z,1.33
2023-05-13T10:55:23.131Z,1.33
2023-05-13T10:57:22.225Z,1.33
2023-05-13T10:59:22.078Z,1.34
2023-05-13T11:01:30.515Z,1.34
2023-05-13T11:03:25.530Z,1.34
2023-05-13T11:05:22.330Z,1.34
2023-05-13T11:07:22.441Z,1.34
2023-05-13T11:09:21.990Z,1.34
2023-05-13T11:11:22.738Z,1.34
2023-05-13T11:13:22.381Z,1.34
2023-05-13T11:15:22.616Z,1.34
2023-05-13T11:17:22.381Z,1.34
2023-05-13T11:19:22.960Z,1.34
2023-05-13T11:21:39.974Z,1.34
2023-05-13T11:23:22.482Z,1.35
2023-05-13T11:25:21.924Z,1.35
2023-05-13T11:27:22.510Z,1.35
2023-05-13T11:29:21.994Z,1.35
2023-05-13T11:31:22.861Z,1.35
2023-05-13T11:33:22.569Z,1.35
2023-05-13T11:35:22.548Z,1.34
2023-05-13T11:37:22.302Z,1.34
2023-05-13T11:39:22.888Z,1.34
2023-05-13T11:41:22.587Z,1.34
2023-05-13T11:43:22.676Z,1.34
2023-05-13T11:45:22.437Z,1.34
2023-05-13T11:47:22.312Z,1.23
2023-05-13T11:49:22.624Z,1.23
2023-05-13T11:51:22.087Z,1.23
2023-05-13T11:53:22.680Z,1.1
2023-05-13T11:55:22.492Z,1.1
2023-05-13T11:57:22.056Z,1.1
2023-05-13T11:59:22.691Z,1.1
2023-05-13T12:01:25.801Z,1.1
2023-05-13T12:03:23.919Z,1.1
2023-05-13T12:05:23.018Z,1.1
2023-05-13T12:07:22.012Z,1.1
2023-05-13T12:09:22.905Z,1.1
2023-05-13T12:11:22.370Z,1.11
2023-05-13T12:13:22.630Z,1.11
2023-05-13T12:15:25.725Z,1.11
2023-05-13T12:17:21.988Z,1.12
2023-05-13T12:19:22.959Z,1.12
2023-05-13T12:21:23.541Z,1.12
2023-05-13T12:23:25.781Z,1.2
2023-05-13T12:25:22.053Z,1.2
2023-05-13T12:27:23.172Z,1.2
2023-05-13T12:29:22.263Z,1.33
2023-05-13T12:31:22.908Z,1.33
2023-05-13T12:33:22.701Z,1.33
2023-05-13T12:35:22.958Z,1.35
2023-05-13T12:37:22.773Z,1.35
2023-05-13T12:39:24.061Z,1.35
2023-05-13T12:41:22.619Z,1.36
2023-05-13T12:43:22.039Z,1.36
2023-05-13T12:45:22.190Z,1.36
2023-05-13T12:47:22.964Z,1.36
2023-05-13T12:49:22.057Z,1.36
2023-05-13T12:51:25.194Z,1.36
2023-05-13T12:53:22.340Z,1.37
2023-05-13T12:55:22.299Z,1.37
2023-05-13T12:57:22.567Z,1.37
2023-05-13T12:59:22.065Z,1.38
2023-05-13T13:01:29.683Z,1.38
2023-05-13T13:03:24.642Z,1.38
2023-05-13T13:05:22.741Z,1.38
2023-05-13T13:07:22.397Z,1.38
2023-05-13T13:09:22.070Z,1.38
2023-05-13T13:11:22.750Z,1.38
2023-05-13T13:13:22.340Z,1.38
2023-05-13T13:15:22.153Z,1.38
2023-05-13T13:17:23.071Z,1.38
2023-05-13T13:19:25.221Z,1.38
2023-05-13T13:21:22.849Z,1.38
2023-05-13T13:23:22.279Z,1.39
2023-05-13T13:25:22.895Z,1.39
2023-05-13T13:27:22.538Z,1.39
2023-05-13T13:29:21.877Z,1.39
2023-05-13T13:31:22.725Z,1.39
2023-05-13T13:33:24.543Z,1.39
2023-05-13T13:35:22.936Z,1.4
2023-05-13T13:37:22.024Z,1.4
2023-05-13T13:39:22.698Z,1.4
2023-05-13T13:41:22.597Z,1.4
2023-05-13T13:43:31.249Z,1.4
2023-05-13T13:45:24.295Z,1.4
2023-05-13T13:47:22.823Z,1.4
2023-05-13T13:49:35.350Z,1.4
2023-05-13T13:51:24.270Z,1.4
2023-05-13T13:53:22.793Z,1.41
2023-05-13T13:55:22.453Z,1.41
2023-05-13T13:57:21.981Z,1.41
2023-05-13T13:59:22.479Z,1.42
2023-05-13T14:01:25.327Z,1.42
2023-05-13T14:03:24.084Z,1.42
2023-05-13T14:05:23.224Z,1.42
2023-05-13T14:07:21.778Z,1.42
2023-05-13T14:09:22.730Z,1.42
2023-05-13T14:11:22.553Z,1.41
2023-05-13T14:13:21.745Z,1.41
2023-05-13T14:15:22.438Z,1.41
2023-05-13T14:17:24.682Z,1.42
2023-05-13T14:19:23.256Z,1.42
2023-05-13T14:21:22.790Z,1.42
2023-05-13T14:23:22.121Z,1.42
2023-05-13T14:25:21.814Z,1.42
2023-05-13T14:27:22.376Z,1.42
2023-05-13T14:29:22.795Z,1.42
2023-05-13T14:31:22.728Z,1.42
2023-05-13T14:33:22.372Z,1.42
2023-05-13T14:35:22.724Z,1.43
2023-05-13T14:37:22.225Z,1.43
2023-05-13T14:39:22.705Z,1.43
2023-05-13T14:41:22.540Z,1.45
2023-05-13T14:43:21.719Z,1.45
2023-05-13T14:45:27.525Z,1.45
2023-05-13T14:47:22.794Z,1.43
2023-05-13T14:49:22.551Z,1.43
2023-05-13T14:51:22.568Z,1.43
2023-05-13T14:53:22.707Z,1.44
2023-05-13T14:55:22.422Z,1.44
2023-05-13T14:57:22.159Z,1.44
2023-05-13T14:59:22.806Z,1.44
2023-05-13T15:01:26.354Z,1.44
2023-05-13T15:03:23.346Z,1.44
2023-05-13T15:05:22.967Z,1.45
2023-05-13T15:07:22.272Z,1.45
2023-05-13T15:09:22.557Z,1.45
2023-05-13T15:11:22.488Z,1.45
2023-05-13T15:13:22.783Z,1.45
2023-05-13T15:15:22.526Z,1.45
2023-05-13T15:17:23.109Z,1.46
2023-05-13T15:19:22.776Z,1.46
2023-05-13T15:21:22.077Z,1.46
2023-05-13T15:23:22.634Z,1.47
2023-05-13T15:25:22.102Z,1.47
2023-05-13T15:27:22.669Z,1.47
2023-05-13T15:29:22.164Z,1.48
2023-05-13T15:31:22.661Z,1.48
2023-05-13T15:33:22.974Z,1.48
2023-05-13T15:35:22.415Z,1.48
2023-05-13T15:37:22.791Z,1.48
2023-05-13T15:39:25.159Z,1.48
2023-05-13T15:41:22.221Z,1.52
2023-05-13T15:43:22.518Z,1.52
2023-05-13T15:45:22.351Z,1.52
2023-05-13T15:47:24.990Z,1.52
2023-05-13T15:49:22.564Z,1.52
2023-05-13T15:51:22.295Z,1.52
2023-05-13T15:53:22.260Z,1.52
2023-05-13T15:55:22.495Z,1.52
2023-05-13T15:57:22.197Z,1.52
2023-05-13T15:59:22.042Z,1.53
2023-05-13T16:01:26.230Z,1.53
2023-05-13T16:03:22.623Z,1.53
2023-05-13T16:05:22.164Z,1.54
2023-05-13T16:07:22.599Z,1.54
2023-05-13T16:09:21.991Z,1.54
2023-05-13T16:11:23.318Z,1.54
2023-05-13T16:13:22.357Z,1.54
2023-05-13T16:15:21.791Z,1.54
2023-05-13T16:17:23.332Z,1.55
2023-05-13T16:19:23.369Z,1.55
2023-05-13T16:21:22.937Z,1.55
2023-05-13T16:23:22.154Z,1.56
2023-05-13T16:25:24.302Z,1.56
2023-05-13T16:27:22.313Z,1.56
2023-05-13T16:29:22.626Z,1.57
2023-05-13T16:31:22.616Z,1.57
2023-05-13T16:33:22.915Z,1.57
2023-05-13T16:35:22.389Z,1.56
2023-05-13T16:37:22.444Z,1.56
2023-05-13T16:39:22.615Z,1.56
2023-05-13T16:41:22.474Z,1.56
2023-05-13T16:43:26.952Z,1.56
2023-05-13T16:45:22.311Z,1.56
2023-05-13T16:47:23.252Z,1.56
2023-05-13T16:49:24.296Z,1.56
2023-05-13T16:51:23.308Z,1.56
2023-05-13T16:53:22.375Z,1.56
2023-05-13T16:55:22.705Z,1.56
2023-05-13T16:57:23.557Z,1.56
2023-05-13T16:59:22.333Z,1.56
2023-05-13T17:01:24.473Z,1.56
2023-05-13T17:03:23.977Z,1.56
2023-05-13T17:05:22.242Z,1.56
2023-05-13T17:07:22.772Z,1.56
2023-05-13T17:09:23.564Z,1.56
2023-05-13T17:11:23.041Z,1.54
2023-05-13T17:13:23.705Z,1.54
2023-05-13T17:15:22.790Z,1.54
2023-05-13T17:17:22.846Z,1.54
2023-05-13T17:19:22.763Z,1.54
2023-05-13T17:21:22.753Z,1.54
2023-05-13T17:23:22.628Z,1.53
2023-05-13T17:25:22.006Z,1.53
2023-05-13T17:27:24.866Z,1.53
2023-05-13T17:29:22.181Z,1.53
2023-05-13T17:31:22.400Z,1.53
2023-05-13T17:33:23.073Z,1.53
2023-05-13T17:35:22.453Z,1.53
2023-05-13T17:37:24.636Z,1.52
2023-05-13T17:39:22.167Z,1.52
2023-05-13T17:41:22.226Z,1.53
2023-05-13T17:43:22.436Z,1.52
2023-05-13T17:45:22.199Z,1.52
2023-05-13T17:47:22.800Z,1.53
2023-05-13T17:49:22.995Z,1.52
2023-05-13T17:51:22.293Z,1.52
2023-05-13T17:53:22.788Z,1.54
2023-05-13T17:55:22.280Z,1.54
2023-05-13T17:57:21.734Z,1.54
2023-05-13T17:59:22.739Z,1.54
2023-05-13T18:01:29.879Z,1.54
2023-05-13T18:03:23.247Z,1.54
2023-05-13T18:05:21.914Z,1.54
2023-05-13T18:07:22.584Z,1.54
2023-05-13T18:09:22.061Z,1.54
2023-05-13T18:11:22.771Z,1.55
2023-05-13T18:13:23.694Z,1.55
2023-05-13T18:15:22.420Z,1.55
2023-05-13T18:17:22.324Z,1.56
2023-05-13T18:19:22.928Z,1.55
2023-05-13T18:21:22.528Z,1.55
2023-05-13T18:23:22.816Z,1.55
2023-05-13T18:25:22.286Z,1.55
2023-05-13T18:27:21.909Z,1.55
2023-05-13T18:29:22.740Z,1.54
2023-05-13T18:31:22.792Z,1.54
2023-05-13T18:33:23.179Z,1.54
2023-05-13T18:35:22.380Z,1.54
2023-05-13T18:37:24.395Z,1.54
2023-05-13T18:39:22.480Z,1.54
2023-05-13T18:41:22.520Z,1.53
2023-05-13T18:43:22.426Z,1.52
2023-05-13T18:45:21.924Z,1.52
2023-05-13T18:47:22.958Z,1.54
2023-05-13T18:49:22.633Z,1.53
2023-05-13T18:51:22.282Z,1.53
2023-05-13T18:53:22.717Z,1.52
2023-05-13T18:55:22.258Z,1.52
2023-05-13T18:57:21.906Z,1.52
2023-05-13T18:59:22.613Z,1.52
2023-05-13T19:01:28.553Z,1.52
2023-05-13T19:03:24.283Z,1.52
2023-05-13T19:05:23.112Z,1.53
2023-05-13T19:07:21.838Z,1.53
2023-05-13T19:09:22.657Z,1.53
2023-05-13T19:11:26.684Z,1.53
2023-05-13T19:13:21.638Z,1.53
2023-05-13T19:15:22.389Z,1.53
2023-05-13T19:17:22.511Z,1.54
2023-05-13T19:19:23.491Z,1.54
2023-05-13T19:21:22.125Z,1.54
2023-05-13T19:23:22.531Z,1.54
2023-05-13T19:25:22.068Z,1.54
2023-05-13T19:27:24.380Z,1.54
2023-05-13T19:29:22.388Z,1.55
2023-05-13T19:31:22.968Z,1.55
2023-05-13T19:33:22.775Z,1.55
2023-05-13T19:35:22.018Z,1.56
2023-05-13T19:37:22.528Z,1.56
2023-05-13T19:39:22.226Z,1.56
2023-05-13T19:41:22.756Z,1.57
2023-05-13T19:43:22.168Z,1.57
2023-05-13T19:45:23.121Z,1.57
2023-05-13T19:47:22.687Z,1.57
2023-05-13T19:49:26.644Z,1.57
2023-05-13T19:51:22.861Z,1.57
2023-05-13T19:53:22.065Z,1.57
2023-05-13T19:55:22.655Z,1.57
2023-05-13T19:57:22.439Z,1.57
2023-05-13T19:59:21.946Z,1.58
2023-05-13T20:01:23.276Z,1.58
2023-05-13T20:03:23.054Z,1.58
2023-05-13T20:05:22.115Z,1.58
2023-05-13T20:07:22.238Z,1.58
2023-05-13T20:09:21.895Z,1.58
2023-05-13T20:11:23.057Z,1.59
2023-05-13T20:13:22.479Z,1.58
2023-05-13T20:15:21.896Z,1.58
2023-05-13T20:17:22.799Z,1.6
2023-05-13T20:19:22.881Z,1.6
2023-05-13T20:21:22.944Z,1.6
2023-05-13T20:23:25.353Z,1.6
2023-05-13T20:25:22.497Z,1.6
2023-05-13T20:27:22.268Z,1.6
2023-05-13T20:29:23.686Z,1.6
2023-05-13T20:31:23.339Z,1.6
2023-05-13T20:33:22.839Z,1.6
2023-05-13T20:35:22.392Z,1.59
2023-05-13T20:37:24.029Z,1.58
2023-05-13T20:39:22.292Z,1.58
2023-05-13T20:41:22.425Z,1.6
2023-05-13T20:43:22.474Z,1.6
2023-05-13T20:45:21.899Z,1.6
2023-05-13T20:47:22.838Z,1.62
2023-05-13T20:49:22.120Z,1.62
2023-05-13T20:51:22.756Z,1.62
2023-05-13T20:53:22.717Z,1.63
2023-05-13T20:55:22.737Z,1.62
2023-05-13T20:57:22.288Z,1.62
2023-05-13T20:59:21.913Z,1.63
2023-05-13T21:01:25.429Z,1.63
2023-05-13T21:03:22.947Z,1.63
2023-05-13T21:05:23.111Z,1.64
2023-05-13T21:07:21.728Z,1.63
2023-05-13T21:09:22.439Z,1.63
2023-05-13T21:11:22.587Z,1.65
2023-05-13T21:13:22.532Z,1.65
2023-05-13T21:15:25.219Z,1.65
2023-05-13T21:17:22.628Z,1.65
2023-05-13T21:19:22.717Z,1.65
2023-05-13T21:21:23.051Z,1.65
2023-05-13T21:23:22.328Z,1.65
2023-05-13T21:25:22.633Z,1.65
2023-05-13T21:27:22.107Z,1.65
2023-05-13T21:29:21.744Z,1.65
2023-05-13T21:31:22.878Z,1.65
2023-05-13T21:33:23.162Z,1.65
2023-05-13T21:35:22.383Z,1.65
2023-05-13T21:37:22.735Z,1.64
2023-05-13T21:39:33.109Z,1.64
2023-05-13T21:41:23.233Z,1.64
2023-05-13T21:43:22.413Z,1.64
2023-05-13T21:45:22.299Z,1.64
2023-05-13T21:47:22.499Z,1.64
2023-05-13T21:49:22.747Z,1.64
2023-05-13T21:51:22.884Z,1.64
2023-05-13T21:53:22.395Z,1.64
2023-05-13T21:55:23.097Z,1.63
2023-05-13T21:57:22.234Z,1.63
2023-05-13T21:59:22.930Z,1.63
2023-05-13T22:01:24.023Z,1.63
2023-05-13T22:03:23.875Z,1.63
2023-05-13T22:05:24.359Z,1.63
2023-05-13T22:07:22.446Z,1.63
2023-05-13T22:09:21.989Z,1.63
2023-05-13T22:11:23.142Z,1.63
2023-05-13T22:13:22.133Z,1.63
2023-05-13T22:15:22.651Z,1.63
2023-05-13T22:17:36.385Z,1.63
2023-05-13T22:19:23.996Z,1.63
2023-05-13T22:21:23.128Z,1.63
2023-05-13T22:23:21.757Z,1.63
2023-05-13T22:25:22.291Z,1.63
2023-05-13T22:27:21.874Z,1.63
2023-05-13T22:29:22.619Z,1.63
2023-05-13T22:31:22.473Z,1.63
2023-05-13T22:33:23.128Z,1.63
2023-05-13T22:35:21.981Z,1.63
2023-05-13T22:37:22.652Z,1.63
2023-05-13T22:39:22.369Z,1.63
2023-05-13T22:41:22.775Z,1.63
2023-05-13T22:43:22.428Z,1.63
2023-05-13T22:45:22.097Z,1.63
2023-05-13T22:47:23.205Z,1.63
2023-05-13T22:49:22.473Z,1.63
2023-05-13T22:51:23.274Z,1.63
2023-05-13T22:53:22.411Z,1.63
2023-05-13T22:55:22.045Z,1.63
2023-05-13T22:57:22.925Z,1.63
2023-05-13T22:59:22.549Z,1.63
2023-05-13T23:01:25.543Z,1.63
2023-05-13T23:03:22.247Z,1.63
2023-05-13T23:05:23.362Z,1.63
2023-05-13T23:07:22.436Z,1.63
2023-05-13T23:09:22.724Z,1.63
2023-05-13T23:11:22.754Z,1.64
2023-05-13T23:13:22.152Z,1.64
2023-05-13T23:15:22.769Z,1.64
2023-05-13T23:17:22.732Z,1.63
2023-05-13T23:19:23.354Z,1.63
2023-05-13T23:21:22.907Z,1.63
2023-05-13T23:23:22.086Z,1.63
2023-05-13T23:25:22.683Z,1.63
2023-05-13T23:27:22.365Z,1.63
2023-05-13T23:29:22.759Z,1.64
2023-05-13T23:31:22.993Z,1.64
2023-05-13T23:33:24.549Z,1.64
2023-05-13T23:35:22.721Z,1.64
2023-05-13T23:37:22.185Z,1.64
2023-05-13T23:39:22.564Z,1.64
2023-05-13T23:41:22.925Z,1.65
2023-05-13T23:43:22.271Z,1.65
2023-05-13T23:45:22.687Z,1.65
2023-05-13T23:47:22.424Z,1.65
2023-05-13T23:49:22.679Z,1.65
2023-05-13T23:51:22.803Z,1.65
2023-05-13T23:53:22.190Z,1.65
2023-05-13T23:55:22.847Z,1.65
2023-05-13T23:57:22.426Z,1.65
2023-05-13T23:59:21.821Z,1.65
